Time;durP1;ratioP1;P1;durP2;ratioP2;P2;SDS_P1;SDS_P2;PMS_P1;PMS_P2;Temp;Humidity;BMP_temperature;BMP_pressure;BME280_temperature;BME280_humidity;BME280_pressure;Samples;Min_cycle;Max_cycle;Signal;HPM_P1;HPM_P2
2021/10/05 00:00:46;;;;;;;;;;;11.50;99.90;;;;;;4984172;28;19926;-73
2021/10/05 00:03:18;;;;;;;;;;;11.50;99.90;;;;;;4975378;28;19933;-72
2021/10/05 00:05:50;;;;;;;;;;;11.50;99.90;;;;;;4991648;28;19926;-72
2021/10/05 00:08:21;;;;;;;;;;;11.50;99.90;;;;;;4974989;28;19925;-71
2021/10/05 00:10:53;;;;;;;;;;;11.40;99.90;;;;;;4974522;28;19933;-72
2021/10/05 00:13:25;;;;;;;;;;;11.40;99.90;;;;;;4974557;28;19938;-73
2021/10/05 00:15:57;;;;;;;;;;;11.40;99.90;;;;;;4991572;28;19933;-72
2021/10/05 00:18:24;;;;;;;;;;;11.40;99.90;;;;;;4990752;28;19941;-72
2021/10/05 00:20:50;;;;;;;;;;;11.30;99.90;;;;;;4974406;28;19930;-72
2021/10/05 00:23:22;;;;;;;;;;;11.30;99.90;;;;;;4974669;28;20388;-72
2021/10/05 00:25:54;;;;;;;;;;;11.30;99.90;;;;;;4974972;28;20316;-71
2021/10/05 00:28:26;;;;;;;;;;;11.30;99.90;;;;;;4958982;28;20470;-72
2021/10/05 00:30:58;;;;;;;;;;;11.30;99.90;;;;;;4990615;28;20289;-71
2021/10/05 00:33:24;;;;;;;;;;;11.40;99.90;;;;;;4990620;28;20277;-71
2021/10/05 00:35:51;;;;;;;;;;;11.40;99.90;;;;;;4991582;28;20460;-72
2021/10/05 00:38:23;;;;;;;;;;;11.50;99.90;;;;;;4974403;28;19926;-72
2021/10/05 00:40:50;;;;;;;;;;;11.50;99.90;;;;;;4975350;28;19948;-71
2021/10/05 00:43:23;;;;;;;;;;;11.60;99.90;;;;;;4994257;28;19926;-72
2021/10/05 00:45:55;;;;;;;;;;;11.50;99.90;;;;;;4995517;28;20407;-73
2021/10/05 00:48:27;;;;;;;;;;;11.50;99.90;;;;;;4978135;28;19976;-71
2021/10/05 00:50:59;;;;;;;;;;;11.50;99.90;;;;;;4977820;28;19949;-72
2021/10/05 00:53:25;;;;;;;;;;;11.50;99.90;;;;;;4995236;28;20002;-72
2021/10/05 00:55:52;;;;;;;;;;;11.50;99.90;;;;;;4995140;28;19952;-72
2021/10/05 00:58:24;;;;;;;;;;;11.50;99.90;;;;;;4994863;28;19933;-72
2021/10/05 01:00:56;;;;;;;;;;;11.40;99.90;;;;;;4994959;28;19984;-74
2021/10/05 01:03:28;;;;;;;;;;;11.40;99.90;;;;;;4977262;28;20384;-72
2021/10/05 01:05:54;;;;;;;;;;;11.40;99.90;;;;;;4994441;28;20505;-72
2021/10/05 01:08:21;;;;;;;;;;;11.40;99.90;;;;;;4977209;28;19980;-73
2021/10/05 01:10:53;;;;;;;;;;;11.40;99.90;;;;;;4994622;28;19933;-72
2021/10/05 01:13:25;;;;;;;;;;;11.40;99.90;;;;;;4993118;28;20332;-72
2021/10/05 01:15:57;;;;;;;;;;;11.40;99.90;;;;;;4976759;28;20389;-72
2021/10/05 01:18:29;;;;;;;;;;;11.40;99.90;;;;;;4977138;28;20344;-72
2021/10/05 01:21:02;;;;;;;;;;;11.40;99.90;;;;;;4993929;28;19933;-72
2021/10/05 01:23:30;;;;;;;;;;;11.40;99.90;;;;;;4977773;28;20381;-72
2021/10/05 01:26:02;;;;;;;;;;;11.40;99.90;;;;;;4977081;28;20309;-72
2021/10/05 01:28:34;;;;;;;;;;;11.40;99.90;;;;;;4994479;28;20389;-72
2021/10/05 01:31:00;;;;;;;;;;;11.40;99.90;;;;;;4977131;28;20385;-72
2021/10/05 01:33:28;;;;;;;;;;;11.40;99.90;;;;;;4976909;28;19926;-72
2021/10/05 01:36:00;;;;;;;;;;;11.40;99.90;;;;;;4976147;28;20427;-71
2021/10/05 01:38:27;;;;;;;;;;;11.40;99.90;;;;;;4976389;28;19930;-73
2021/10/05 01:40:58;;;;;;;;;;;11.30;99.90;;;;;;4977711;28;19926;-72
2021/10/05 01:43:25;;;;;;;;;;;11.30;99.90;;;;;;4978201;28;19929;-72
2021/10/05 01:45:58;;;;;;;;;;;11.30;99.90;;;;;;4993951;28;19976;-72
2021/10/05 01:48:25;;;;;;;;;;;11.30;99.90;;;;;;4978004;28;20428;-72
2021/10/05 01:50:56;;;;;;;;;;;11.30;99.90;;;;;;4977834;28;19960;-73
2021/10/05 01:53:23;;;;;;;;;;;11.40;99.90;;;;;;4992718;28;19926;-72
2021/10/05 01:55:50;;;;;;;;;;;11.40;99.90;;;;;;4977769;28;20032;-73
2021/10/05 01:58:22;;;;;;;;;;;11.40;99.90;;;;;;4978754;28;20024;-72
2021/10/05 02:00:48;;;;;;;;;;;11.40;99.90;;;;;;4994030;28;19933;-73
2021/10/05 02:03:20;;;;;;;;;;;11.40;99.90;;;;;;4977719;28;20021;-73
2021/10/05 02:05:47;;;;;;;;;;;11.50;99.90;;;;;;4993829;28;19926;-73
2021/10/05 02:08:19;;;;;;;;;;;11.40;99.90;;;;;;4995172;28;20033;-73
2021/10/05 02:10:45;;;;;;;;;;;11.50;99.90;;;;;;4969702;28;20017;-73
2021/10/05 02:13:12;;;;;;;;;;;11.50;99.90;;;;;;4961570;28;20022;-72
2021/10/05 02:15:44;;;;;;;;;;;11.50;99.90;;;;;;4961941;28;19926;-73
2021/10/05 02:18:10;;;;;;;;;;;11.50;99.90;;;;;;4977731;28;19957;-72
2021/10/05 02:20:42;;;;;;;;;;;11.50;99.90;;;;;;4994784;28;19926;-73
2021/10/05 02:23:14;;;;;;;;;;;11.50;99.90;;;;;;4978394;28;20300;-72
2021/10/05 02:25:40;;;;;;;;;;;11.40;99.90;;;;;;4976483;28;20394;-73
2021/10/05 02:28:12;;;;;;;;;;;11.40;99.90;;;;;;4977385;28;20367;-72
2021/10/05 02:30:44;;;;;;;;;;;11.40;99.90;;;;;;4993264;28;19925;-73
2021/10/05 02:33:11;;;;;;;;;;;11.40;99.90;;;;;;4977176;28;19961;-72
2021/10/05 02:35:37;;;;;;;;;;;11.40;99.90;;;;;;4993241;28;19961;-72
2021/10/05 02:38:09;;;;;;;;;;;11.40;99.90;;;;;;4993333;28;19932;-72
2021/10/05 02:40:36;;;;;;;;;;;11.40;99.90;;;;;;4993220;28;19980;-71
2021/10/05 02:43:07;;;;;;;;;;;11.40;99.90;;;;;;4977247;28;19930;-72
2021/10/05 02:45:39;;;;;;;;;;;11.40;99.90;;;;;;4994204;28;19926;-72
2021/10/05 02:48:11;;;;;;;;;;;11.30;99.90;;;;;;4976973;28;20384;-72
2021/10/05 02:50:42;;;;;;;;;;;11.40;99.90;;;;;;4992596;28;20312;-72
2021/10/05 02:53:09;;;;;;;;;;;11.40;99.90;;;;;;4976742;28;20040;-72
2021/10/05 02:55:41;;;;;;;;;;;11.40;99.90;;;;;;4992972;28;20307;-72
2021/10/05 02:58:07;;;;;;;;;;;11.40;99.90;;;;;;4976773;28;20379;-72
2021/10/05 03:00:40;;;;;;;;;;;11.50;99.90;;;;;;4994017;28;20020;-72
2021/10/05 03:03:06;;;;;;;;;;;11.50;99.90;;;;;;4976413;28;20408;-72
2021/10/05 03:05:38;;;;;;;;;;;11.50;99.90;;;;;;4992651;28;19933;-72
2021/10/05 03:08:05;;;;;;;;;;;11.40;99.90;;;;;;4976582;28;20029;-72
2021/10/05 03:10:36;;;;;;;;;;;11.40;99.90;;;;;;4976404;28;20025;-73
2021/10/05 03:13:04;;;;;;;;;;;11.50;99.90;;;;;;4976480;28;19961;-72
2021/10/05 03:15:31;;;;;;;;;;;11.50;99.90;;;;;;4992442;28;20033;-73
2021/10/05 03:18:03;;;;;;;;;;;11.40;99.90;;;;;;4961132;28;20352;-73
2021/10/05 03:20:34;;;;;;;;;;;11.40;99.90;;;;;;4976230;28;20308;-72
2021/10/05 03:23:01;;;;;;;;;;;11.30;99.90;;;;;;4992573;28;20373;-72
2021/10/05 03:25:28;;;;;;;;;;;11.30;99.90;;;;;;4992370;28;19968;-72
2021/10/05 03:28:00;;;;;;;;;;;11.30;99.90;;;;;;4992919;28;19925;-72
2021/10/05 03:30:32;;;;;;;;;;;11.20;99.90;;;;;;4975365;28;19932;-73
2021/10/05 03:32:58;;;;;;;;;;;11.20;99.90;;;;;;4975223;28;20352;-72
2021/10/05 03:35:30;;;;;;;;;;;11.10;99.90;;;;;;4991287;28;19926;-72
2021/10/05 03:37:57;;;;;;;;;;;11.10;99.90;;;;;;4992070;28;20119;-73
2021/10/05 03:40:29;;;;;;;;;;;11.10;99.90;;;;;;4970022;28;20316;-72
2021/10/05 03:43:01;;;;;;;;;;;11.10;99.90;;;;;;4975963;28;19925;-72
2021/10/05 03:45:33;;;;;;;;;;;11.00;99.90;;;;;;4988715;28;19980;-72
2021/10/05 03:48:04;;;;;;;;;;;11.00;99.90;;;;;;4994540;28;19926;-72
2021/10/05 03:50:36;;;;;;;;;;;11.00;99.90;;;;;;5011477;28;19925;-72
2021/10/05 03:53:08;;;;;;;;;;;11.00;99.90;;;;;;4978518;28;19930;-72
2021/10/05 03:55:35;;;;;;;;;;;11.00;99.90;;;;;;4993415;28;19937;-72
2021/10/05 03:58:06;;;;;;;;;;;11.00;99.90;;;;;;5011534;28;19980;-72
2021/10/05 04:00:38;;;;;;;;;;;11.10;99.90;;;;;;4994526;28;19929;-72
2021/10/05 04:03:05;;;;;;;;;;;11.00;99.90;;;;;;4994044;28;19949;-74
2021/10/05 04:05:32;;;;;;;;;;;11.00;99.90;;;;;;4993446;28;19929;-74
2021/10/05 04:08:04;;;;;;;;;;;11.00;99.90;;;;;;4983751;28;19980;-73
2021/10/05 04:10:36;;;;;;;;;;;11.00;99.90;;;;;;4973874;28;19925;-74
2021/10/05 04:13:08;;;;;;;;;;;10.90;99.90;;;;;;4973793;28;19930;-73
2021/10/05 04:15:35;;;;;;;;;;;10.90;99.90;;;;;;4982262;28;19932;-72
2021/10/05 04:18:01;;;;;;;;;;;10.90;99.90;;;;;;5017594;28;19933;-72
2021/10/05 04:20:28;;;;;;;;;;;10.90;99.90;;;;;;5013588;28;20392;-73
2021/10/05 04:22:55;;;;;;;;;;;10.90;99.90;;;;;;4977555;28;20020;-73
2021/10/05 04:25:22;;;;;;;;;;;11.00;99.90;;;;;;5011520;28;20480;-73
2021/10/05 04:27:48;;;;;;;;;;;11.00;99.90;;;;;;4980176;28;20028;-73
2021/10/05 04:30:15;;;;;;;;;;;11.00;99.90;;;;;;4963197;28;19926;-72
2021/10/05 04:32:42;;;;;;;;;;;11.00;99.90;;;;;;4977900;28;19933;-73
2021/10/05 04:35:09;;;;;;;;;;;11.00;99.90;;;;;;4978121;28;19930;-72
2021/10/05 04:37:35;;;;;;;;;;;11.00;99.90;;;;;;4978095;28;19929;-73
2021/10/05 04:40:08;;;;;;;;;;;11.00;99.90;;;;;;4972386;28;19926;-73
2021/10/05 04:42:35;;;;;;;;;;;11.00;99.90;;;;;;4976585;28;19958;-73
2021/10/05 04:45:07;;;;;;;;;;;10.90;99.90;;;;;;4973651;28;19925;-73
2021/10/05 04:47:38;;;;;;;;;;;10.90;99.90;;;;;;5015448;28;19961;-73
2021/10/05 04:50:11;;;;;;;;;;;10.90;99.90;;;;;;4998805;28;20406;-73
2021/10/05 04:52:43;;;;;;;;;;;10.90;99.90;;;;;;5014838;28;19972;-73
2021/10/05 04:55:14;;;;;;;;;;;10.90;99.90;;;;;;4985572;28;19932;-73
2021/10/05 04:57:46;;;;;;;;;;;10.80;99.90;;;;;;4990775;28;20361;-73
2021/10/05 05:00:18;;;;;;;;;;;10.80;99.90;;;;;;4990993;28;20017;-73
2021/10/05 05:02:44;;;;;;;;;;;10.90;99.90;;;;;;4993917;28;19969;-73
2021/10/05 05:05:11;;;;;;;;;;;10.90;99.90;;;;;;4994194;28;19925;-73
2021/10/05 05:07:43;;;;;;;;;;;10.90;99.90;;;;;;4979091;28;20021;-73
2021/10/05 05:10:10;;;;;;;;;;;10.90;99.90;;;;;;4977730;28;19968;-73
2021/10/05 05:12:41;;;;;;;;;;;10.90;99.90;;;;;;4977167;28;19961;-73
2021/10/05 05:15:13;;;;;;;;;;;10.90;99.90;;;;;;4976811;28;20308;-73
2021/10/05 05:17:45;;;;;;;;;;;10.90;99.90;;;;;;4978185;28;19926;-73
2021/10/05 05:20:12;;;;;;;;;;;10.90;99.90;;;;;;4995120;28;20299;-73
2021/10/05 05:22:45;;;;;;;;;;;10.90;99.90;;;;;;4978155;28;19940;-73
2021/10/05 05:25:12;;;;;;;;;;;10.90;99.90;;;;;;4994202;28;19980;-73
2021/10/05 05:27:39;;;;;;;;;;;10.90;99.90;;;;;;4976862;28;20312;-73
2021/10/05 05:30:07;;;;;;;;;;;10.90;99.90;;;;;;4994127;28;20012;-73
2021/10/05 05:32:38;;;;;;;;;;;10.80;99.90;;;;;;4977982;28;19936;-72
2021/10/05 05:35:10;;;;;;;;;;;10.80;99.90;;;;;;4992967;28;20052;-72
2021/10/05 05:37:37;;;;;;;;;;;10.80;99.90;;;;;;4982156;28;19925;-72
2021/10/05 05:40:09;;;;;;;;;;;10.80;99.90;;;;;;4983049;28;20420;-73
2021/10/05 05:42:40;;;;;;;;;;;10.80;99.90;;;;;;4976406;28;20401;-74
2021/10/05 05:45:07;;;;;;;;;;;10.80;99.90;;;;;;4985649;28;19926;-74
2021/10/05 05:47:36;;;;;;;;;;;10.80;99.90;;;;;;4985836;28;20296;-73
2021/10/05 05:50:06;;;;;;;;;;;10.80;99.90;;;;;;4985848;28;19981;-73
2021/10/05 05:52:33;;;;;;;;;;;10.80;99.90;;;;;;4973880;28;19925;-74
2021/10/05 05:55:05;;;;;;;;;;;10.80;99.90;;;;;;4990717;28;19932;-74
2021/10/05 05:57:37;;;;;;;;;;;10.90;99.90;;;;;;5011065;28;19925;-73
2021/10/05 06:00:09;;;;;;;;;;;10.90;99.90;;;;;;4991028;28;19929;-73
2021/10/05 06:02:38;;;;;;;;;;;11.00;99.90;;;;;;4977267;28;19929;-73
2021/10/05 06:05:05;;;;;;;;;;;11.00;99.90;;;;;;4969574;28;19933;-74
2021/10/05 06:07:38;;;;;;;;;;;11.00;99.90;;;;;;4976796;28;20408;-73
2021/10/05 06:10:05;;;;;;;;;;;11.00;99.90;;;;;;4994420;28;20396;-74
2021/10/05 06:12:39;;;;;;;;;;;11.00;99.90;;;;;;5001390;28;19925;-73
2021/10/05 06:15:13;;;;;;;;;;;11.10;99.90;;;;;;4985078;28;20349;-73
2021/10/05 06:17:41;;;;;;;;;;;11.00;99.90;;;;;;4986017;28;19936;-74
2021/10/05 06:20:24;;;;;;;;;;;10.90;99.90;;;;;;4984108;28;20618;-73
2021/10/05 06:22:56;;;;;;;;;;;11.00;99.90;;;;;;5005654;28;20011;-74
2021/10/05 06:25:28;;;;;;;;;;;11.00;99.90;;;;;;4983518;28;19926;-74
2021/10/05 06:28:00;;;;;;;;;;;10.90;99.90;;;;;;4991379;28;20384;-74
2021/10/05 06:30:28;;;;;;;;;;;11.00;99.90;;;;;;5009709;28;19926;-74
2021/10/05 06:32:55;;;;;;;;;;;11.00;99.90;;;;;;4994542;28;19981;-73
2021/10/05 06:35:24;;;;;;;;;;;11.00;99.90;;;;;;5011685;28;19930;-74
2021/10/05 06:37:54;;;;;;;;;;;11.00;99.90;;;;;;5013044;28;19932;-74
2021/10/05 06:40:27;;;;;;;;;;;11.00;99.90;;;;;;4995163;28;19934;-74
2021/10/05 06:42:54;;;;;;;;;;;11.00;99.90;;;;;;4991560;28;20012;-74
2021/10/05 06:45:27;;;;;;;;;;;11.00;99.90;;;;;;4983746;28;19926;-73
2021/10/05 06:47:59;;;;;;;;;;;11.00;99.90;;;;;;4977389;28;19985;-74
2021/10/05 06:50:32;;;;;;;;;;;11.00;99.90;;;;;;5006022;28;19926;-73
2021/10/05 06:53:04;;;;;;;;;;;11.10;99.90;;;;;;4979551;28;20295;-73
2021/10/05 06:55:31;;;;;;;;;;;11.10;99.90;;;;;;5006057;28;19929;-73
2021/10/05 06:58:03;;;;;;;;;;;11.10;99.90;;;;;;4995201;28;19926;-74
2021/10/05 07:00:30;;;;;;;;;;;11.10;99.90;;;;;;4993005;28;19926;-73
2021/10/05 07:03:01;;;;;;;;;;;11.10;99.90;;;;;;4975643;28;19933;-74
2021/10/05 07:05:33;;;;;;;;;;;11.10;99.90;;;;;;4975096;28;19926;-74
2021/10/05 07:08:04;;;;;;;;;;;11.10;99.90;;;;;;4975621;28;19933;-73
2021/10/05 07:10:36;;;;;;;;;;;11.20;99.90;;;;;;4975547;28;19926;-73
2021/10/05 07:13:08;;;;;;;;;;;11.10;99.90;;;;;;4979036;28;19933;-73
2021/10/05 07:15:40;;;;;;;;;;;11.10;99.90;;;;;;4982336;28;19936;-73
2021/10/05 07:18:12;;;;;;;;;;;11.10;99.90;;;;;;4975072;28;20344;-73
2021/10/05 07:20:39;;;;;;;;;;;11.20;99.90;;;;;;4985638;28;19976;-73
2021/10/05 07:23:10;;;;;;;;;;;11.20;99.90;;;;;;4995697;28;19988;-73
2021/10/05 07:25:37;;;;;;;;;;;11.20;99.90;;;;;;4975475;28;19926;-73
2021/10/05 07:28:10;;;;;;;;;;;11.20;99.90;;;;;;4994680;28;19953;-73
2021/10/05 07:30:43;;;;;;;;;;;11.10;99.90;;;;;;5010966;28;19930;-73
2021/10/05 07:33:15;;;;;;;;;;;11.20;99.90;;;;;;4991059;28;19926;-74
2021/10/05 07:35:42;;;;;;;;;;;11.20;99.90;;;;;;4986578;28;19925;-72
2021/10/05 07:38:14;;;;;;;;;;;11.20;99.90;;;;;;4994426;28;20440;-72
2021/10/05 07:40:41;;;;;;;;;;;11.20;99.90;;;;;;5007778;28;19936;-73
2021/10/05 07:43:07;;;;;;;;;;;11.20;99.90;;;;;;4977661;28;19926;-72
2021/10/05 07:45:39;;;;;;;;;;;11.30;99.90;;;;;;4983368;28;19930;-73
2021/10/05 07:48:11;;;;;;;;;;;11.30;99.90;;;;;;4986419;28;19925;-72
2021/10/05 07:50:43;;;;;;;;;;;11.30;99.90;;;;;;4982594;28;19934;-73
2021/10/05 07:53:10;;;;;;;;;;;11.30;99.90;;;;;;4973751;28;19948;-73
2021/10/05 07:55:36;;;;;;;;;;;11.30;99.90;;;;;;4993676;28;19925;-73
2021/10/05 07:58:08;;;;;;;;;;;11.40;99.90;;;;;;4977227;28;19929;-73
2021/10/05 08:00:35;;;;;;;;;;;11.50;99.90;;;;;;4974765;28;19926;-73
2021/10/05 08:03:02;;;;;;;;;;;11.50;99.90;;;;;;4994483;28;19925;-73
2021/10/05 08:05:33;;;;;;;;;;;11.50;99.90;;;;;;5000531;28;19925;-73
2021/10/05 08:08:05;;;;;;;;;;;11.50;99.90;;;;;;4985625;28;19973;-73
2021/10/05 08:10:32;;;;;;;;;;;11.60;99.90;;;;;;4977955;28;19929;-73
2021/10/05 08:13:06;;;;;;;;;;;11.70;99.90;;;;;;4994788;28;19925;-73
2021/10/05 08:15:38;;;;;;;;;;;11.70;99.90;;;;;;4988506;28;19926;-74
2021/10/05 08:18:05;;;;;;;;;;;11.70;99.90;;;;;;4992071;28;19925;-73
2021/10/05 08:20:32;;;;;;;;;;;11.70;99.90;;;;;;4992287;28;19926;-72
2021/10/05 08:22:59;;;;;;;;;;;11.70;99.90;;;;;;4985331;28;19926;-72
2021/10/05 08:25:26;;;;;;;;;;;11.80;99.90;;;;;;4976707;28;19933;-72
2021/10/05 08:27:58;;;;;;;;;;;11.90;99.90;;;;;;4976397;28;19930;-73
2021/10/05 08:30:25;;;;;;;;;;;12.10;99.90;;;;;;4971635;28;19926;-72
2021/10/05 08:32:56;;;;;;;;;;;12.20;99.90;;;;;;4974734;28;19937;-72
2021/10/05 08:35:28;;;;;;;;;;;12.20;99.90;;;;;;4976375;28;19930;-72
2021/10/05 08:37:56;;;;;;;;;;;12.20;99.90;;;;;;4990423;28;20012;-73
2021/10/05 08:40:24;;;;;;;;;;;12.30;99.90;;;;;;4972845;28;19934;-72
2021/10/05 08:42:56;;;;;;;;;;;12.40;99.90;;;;;;4979705;28;20372;-73
2021/10/05 08:45:28;;;;;;;;;;;12.40;99.90;;;;;;4998491;28;19934;-72
2021/10/05 08:47:55;;;;;;;;;;;12.40;99.90;;;;;;4998480;28;19925;-72
2021/10/05 08:50:22;;;;;;;;;;;12.50;99.90;;;;;;4993231;28;19933;-72
2021/10/05 08:52:48;;;;;;;;;;;12.50;99.90;;;;;;4976491;28;19932;-72
2021/10/05 08:55:15;;;;;;;;;;;12.60;99.90;;;;;;4958109;28;19930;-72
2021/10/05 08:57:48;;;;;;;;;;;12.60;99.90;;;;;;4975326;28;19933;-72
2021/10/05 09:00:21;;;;;;;;;;;12.60;99.90;;;;;;4958887;28;19932;-72
2021/10/05 09:02:52;;;;;;;;;;;12.60;99.90;;;;;;4993832;28;19926;-72
2021/10/05 09:05:19;;;;;;;;;;;12.60;99.90;;;;;;4958014;28;19949;-72
2021/10/05 09:07:47;;;;;;;;;;;12.60;99.90;;;;;;4964101;28;19926;-72
2021/10/05 09:10:16;;;;;;;;;;;12.70;99.90;;;;;;4988205;28;19932;-72
2021/10/05 09:12:43;;;;;;;;;;;12.70;99.90;;;;;;4978000;28;19926;-72
2021/10/05 09:15:15;;;;;;;;;;;12.80;99.90;;;;;;4981132;28;19926;-72
2021/10/05 09:17:48;;;;;;;;;;;12.90;99.90;;;;;;4992937;28;19926;-72
2021/10/05 09:20:16;;;;;;;;;;;12.90;99.90;;;;;;4974461;28;19926;-72
2021/10/05 09:22:43;;;;;;;;;;;13.00;99.90;;;;;;5013346;28;19945;-72
2021/10/05 09:25:24;;;;;;;;;;;13.10;99.90;;;;;;4976485;28;19926;-72
2021/10/05 09:27:57;;;;;;;;;;;13.00;99.90;;;;;;4996351;28;20396;-72
2021/10/05 09:30:29;;;;;;;;;;;13.00;99.90;;;;;;4994534;28;19952;-72
2021/10/05 09:33:02;;;;;;;;;;;12.90;99.90;;;;;;4978221;28;20320;-72
2021/10/05 09:35:39;;;;;;;;;;;12.90;99.90;;;;;;4994085;28;20332;-72
2021/10/05 09:38:20;;;;;;;;;;;12.90;99.90;;;;;;4986858;28;19929;-72
2021/10/05 09:40:57;;;;;;;;;;;12.90;99.90;;;;;;5012376;28;20384;-72
2021/10/05 09:43:29;;;;;;;;;;;12.80;99.90;;;;;;5011510;28;19929;-72
2021/10/05 09:46:14;;;;;;;;;;;12.80;99.90;;;;;;4986704;28;19934;-72
2021/10/05 09:48:46;;;;;;;;;;;12.80;99.90;;;;;;4991654;28;19926;-72
2021/10/05 09:51:18;;;;;;;;;;;12.70;99.90;;;;;;4963994;28;20376;-72
2021/10/05 09:53:54;;;;;;;;;;;12.60;99.90;;;;;;4986189;28;19975;-72
2021/10/05 09:56:21;;;;;;;;;;;12.60;99.90;;;;;;4995693;28;19937;-72
2021/10/05 09:58:49;;;;;;;;;;;12.70;99.90;;;;;;4988417;28;19926;-72
2021/10/05 10:01:17;;;;;;;;;;;12.80;99.90;;;;;;4976693;28;19933;-72
2021/10/05 10:03:45;;;;;;;;;;;12.70;99.90;;;;;;4976671;28;19926;-72
2021/10/05 10:06:13;;;;;;;;;;;12.80;99.90;;;;;;4990060;28;19926;-73
2021/10/05 10:08:45;;;;;;;;;;;12.80;99.90;;;;;;4989028;28;19932;-72
2021/10/05 10:11:17;;;;;;;;;;;12.90;99.90;;;;;;4999222;28;19930;-72
2021/10/05 10:13:51;;;;;;;;;;;12.90;99.90;;;;;;4974987;28;20316;-72
2021/10/05 10:16:24;;;;;;;;;;;13.10;99.90;;;;;;4974258;28;20021;-72
2021/10/05 10:18:52;;;;;;;;;;;13.20;99.90;;;;;;4980489;28;19929;-72
2021/10/05 10:21:30;;;;;;;;;;;13.20;99.90;;;;;;4994012;28;19933;-72
2021/10/05 10:24:08;;;;;;;;;;;13.20;99.90;;;;;;4970137;28;19926;-72
2021/10/05 10:26:35;;;;;;;;;;;13.30;99.90;;;;;;4981468;28;20396;-73
2021/10/05 10:29:01;;;;;;;;;;;13.30;99.90;;;;;;4985877;28;19926;-73
2021/10/05 10:31:36;;;;;;;;;;;13.30;99.90;;;;;;4993882;28;19925;-73
2021/10/05 10:34:03;;;;;;;;;;;13.30;99.90;;;;;;4991951;28;19941;-73
2021/10/05 10:36:37;;;;;;;;;;;13.40;99.90;;;;;;4992341;28;19932;-73
2021/10/05 10:39:04;;;;;;;;;;;13.40;99.90;;;;;;5002383;28;19925;-72
2021/10/05 10:41:39;;;;;;;;;;;13.30;99.90;;;;;;5011841;28;19934;-73
2021/10/05 10:44:13;;;;;;;;;;;13.30;99.90;;;;;;4981795;28;19929;-73
2021/10/05 10:46:44;;;;;;;;;;;13.30;99.90;;;;;;5000648;28;19929;-73
2021/10/05 10:49:18;;;;;;;;;;;13.20;99.90;;;;;;4999881;28;19926;-71
2021/10/05 10:51:49;;;;;;;;;;;13.20;99.90;;;;;;4995371;28;19968;-71
2021/10/05 10:54:22;;;;;;;;;;;13.30;99.90;;;;;;4995912;28;19933;-72
2021/10/05 10:56:57;;;;;;;;;;;13.50;99.90;;;;;;5012483;28;19932;-72
2021/10/05 10:59:25;;;;;;;;;;;13.60;99.90;;;;;;4979718;28;19926;-72
2021/10/05 11:01:52;;;;;;;;;;;13.60;99.90;;;;;;4992232;28;19926;-72
2021/10/05 11:04:20;;;;;;;;;;;13.70;99.90;;;;;;4989744;28;19932;-71
2021/10/05 11:06:53;;;;;;;;;;;13.70;99.90;;;;;;5007688;28;20689;-71
2021/10/05 11:09:20;;;;;;;;;;;13.80;99.90;;;;;;4973679;28;19929;-72
2021/10/05 11:11:58;;;;;;;;;;;13.70;99.90;;;;;;4970062;28;19926;-74
2021/10/05 11:14:32;;;;;;;;;;;13.60;99.90;;;;;;4993590;28;19933;-71
2021/10/05 11:17:03;;;;;;;;;;;13.60;99.90;;;;;;4972286;28;19926;-71
2021/10/05 11:19:31;;;;;;;;;;;13.60;99.90;;;;;;4969626;28;19926;-71
2021/10/05 11:22:05;;;;;;;;;;;13.60;99.90;;;;;;4987687;28;19926;-72
2021/10/05 11:24:43;;;;;;;;;;;13.60;99.90;;;;;;4969651;28;19979;-72
2021/10/05 11:27:18;;;;;;;;;;;13.70;99.90;;;;;;4978227;28;19926;-72
2021/10/05 11:29:46;;;;;;;;;;;13.80;99.90;;;;;;4976821;28;19926;-71
2021/10/05 11:32:20;;;;;;;;;;;13.90;99.90;;;;;;4978978;28;19933;-72
2021/10/05 11:34:52;;;;;;;;;;;14.00;99.90;;;;;;4976551;28;19929;-72
2021/10/05 11:37:25;;;;;;;;;;;14.10;99.90;;;;;;4975375;28;19929;-72
2021/10/05 11:39:57;;;;;;;;;;;14.10;99.90;;;;;;4975971;28;20304;-72
2021/10/05 11:42:25;;;;;;;;;;;14.10;99.90;;;;;;4974673;28;19926;-72
2021/10/05 11:44:53;;;;;;;;;;;14.20;99.90;;;;;;4989104;28;19930;-71
2021/10/05 11:47:26;;;;;;;;;;;14.30;99.90;;;;;;4973596;28;19926;-72
2021/10/05 11:49:56;;;;;;;;;;;14.40;99.90;;;;;;4987019;28;19973;-71
2021/10/05 11:52:34;;;;;;;;;;;14.50;99.90;;;;;;4977457;28;19974;-71
2021/10/05 11:55:01;;;;;;;;;;;14.40;99.90;;;;;;4971218;28;19925;-72
2021/10/05 11:57:34;;;;;;;;;;;14.40;99.90;;;;;;4975086;28;19981;-72
2021/10/05 12:00:07;;;;;;;;;;;14.30;99.90;;;;;;4970458;28;19926;-71
2021/10/05 12:02:41;;;;;;;;;;;14.30;99.90;;;;;;4974573;28;19937;-71
2021/10/05 12:05:24;;;;;;;;;;;14.30;99.90;;;;;;4987994;28;19933;-71
2021/10/05 12:07:56;;;;;;;;;;;14.30;99.90;;;;;;4957341;28;19953;-72
2021/10/05 12:10:23;;;;;;;;;;;14.30;99.90;;;;;;4990500;28;19933;-71
2021/10/05 12:12:55;;;;;;;;;;;14.30;99.90;;;;;;4973537;28;19978;-72
2021/10/05 12:15:23;;;;;;;;;;;14.30;99.90;;;;;;4973279;28;19929;-72
2021/10/05 12:18:00;;;;;;;;;;;14.30;99.90;;;;;;4970729;28;20524;-71
2021/10/05 12:20:27;;;;;;;;;;;14.30;99.90;;;;;;4996604;28;19926;-72
2021/10/05 12:22:53;;;;;;;;;;;14.30;99.90;;;;;;4983980;28;19933;-72
2021/10/05 12:25:25;;;;;;;;;;;14.30;99.90;;;;;;4958034;28;19925;-71
2021/10/05 12:27:58;;;;;;;;;;;14.20;99.90;;;;;;4956331;28;20802;-71
2021/10/05 12:30:28;;;;;;;;;;;14.20;99.90;;;;;;4986610;28;19949;-71
2021/10/05 12:32:56;;;;;;;;;;;14.20;99.90;;;;;;4998310;28;19953;-71
2021/10/05 12:35:38;;;;;;;;;;;14.30;99.90;;;;;;4974663;28;20419;-72
2021/10/05 12:38:17;;;;;;;;;;;14.30;99.90;;;;;;4977429;28;19929;-72
2021/10/05 12:40:47;;;;;;;;;;;14.20;99.90;;;;;;4958218;28;19989;-72
2021/10/05 12:43:20;;;;;;;;;;;14.20;99.90;;;;;;4974536;28;19933;-72
2021/10/05 12:45:53;;;;;;;;;;;14.20;99.90;;;;;;4981614;28;19929;-72
2021/10/05 12:48:39;;;;;;;;;;;14.20;99.90;;;;;;4995141;28;19930;-72
2021/10/05 12:51:12;;;;;;;;;;;14.30;99.90;;;;;;4978086;28;19926;-71
2021/10/05 12:53:40;;;;;;;;;;;14.40;99.90;;;;;;4995291;28;19933;-72
2021/10/05 12:56:07;;;;;;;;;;;14.40;99.90;;;;;;4977372;28;19932;-72
2021/10/05 12:58:39;;;;;;;;;;;14.40;99.90;;;;;;4978823;28;20458;-72
2021/10/05 13:01:11;;;;;;;;;;;14.40;99.90;;;;;;4960783;28;19926;-72
2021/10/05 13:03:44;;;;;;;;;;;14.40;99.90;;;;;;4976868;28;19925;-72
2021/10/05 13:06:16;;;;;;;;;;;14.40;99.90;;;;;;4975652;28;19934;-72
2021/10/05 13:08:47;;;;;;;;;;;14.40;99.90;;;;;;4976981;28;19926;-71
2021/10/05 13:11:14;;;;;;;;;;;14.40;99.90;;;;;;4991124;28;19933;-72
2021/10/05 13:13:46;;;;;;;;;;;14.30;99.90;;;;;;4970201;28;19936;-71
2021/10/05 13:16:18;;;;;;;;;;;14.30;99.90;;;;;;4975147;28;19926;-72
2021/10/05 13:18:49;;;;;;;;;;;14.30;99.90;;;;;;4960601;28;20013;-72
2021/10/05 13:21:21;;;;;;;;;;;14.30;99.90;;;;;;4974248;28;20008;-72
2021/10/05 13:23:53;;;;;;;;;;;14.30;99.90;;;;;;4974292;28;19930;-72
2021/10/05 13:26:20;;;;;;;;;;;14.30;99.90;;;;;;4974789;28;20352;-72
2021/10/05 13:28:47;;;;;;;;;;;14.30;99.90;;;;;;4986187;28;20020;-72
2021/10/05 13:31:18;;;;;;;;;;;14.40;99.90;;;;;;4986312;28;20400;-72
2021/10/05 13:33:45;;;;;;;;;;;14.40;99.90;;;;;;4980425;28;19944;-72
2021/10/05 13:36:17;;;;;;;;;;;14.50;99.90;;;;;;4987344;28;19933;-72
2021/10/05 13:38:44;;;;;;;;;;;14.40;99.90;;;;;;4996923;28;19926;-72
2021/10/05 13:41:16;;;;;;;;;;;14.50;99.90;;;;;;4997393;28;19933;-72
2021/10/05 13:43:48;;;;;;;;;;;14.40;99.90;;;;;;4990955;28;19985;-72
2021/10/05 13:46:15;;;;;;;;;;;14.40;99.90;;;;;;4975733;28;19926;-72
2021/10/05 13:48:46;;;;;;;;;;;14.30;99.90;;;;;;4996276;28;19929;-71
2021/10/05 13:51:13;;;;;;;;;;;14.30;99.90;;;;;;5001094;28;19926;-72
2021/10/05 13:53:45;;;;;;;;;;;14.20;99.90;;;;;;4994267;28;19926;-72
2021/10/05 13:56:12;;;;;;;;;;;14.30;99.90;;;;;;4975727;28;19937;-72
2021/10/05 13:58:39;;;;;;;;;;;14.20;99.90;;;;;;4965979;28;19926;-72
2021/10/05 14:01:10;;;;;;;;;;;14.20;99.90;;;;;;4976748;28;19997;-71
2021/10/05 14:03:37;;;;;;;;;;;14.20;99.90;;;;;;4976739;28;20443;-72
2021/10/05 14:06:17;;;;;;;;;;;14.20;99.90;;;;;;4960258;28;19925;-72
2021/10/05 14:08:47;;;;;;;;;;;14.10;99.90;;;;;;4986458;28;19932;-72
2021/10/05 14:11:14;;;;;;;;;;;14.10;99.90;;;;;;4984873;28;19926;-72
2021/10/05 14:13:46;;;;;;;;;;;14.00;99.90;;;;;;4995443;28;20161;-72
2021/10/05 14:16:13;;;;;;;;;;;14.00;99.90;;;;;;4995528;28;19926;-72
2021/10/05 14:18:45;;;;;;;;;;;14.00;99.90;;;;;;4977555;28;20290;-72
2021/10/05 14:21:16;;;;;;;;;;;14.00;99.90;;;;;;4975786;28;19932;-72
2021/10/05 14:23:47;;;;;;;;;;;13.90;99.90;;;;;;4992913;28;19933;-72
2021/10/05 14:26:14;;;;;;;;;;;13.90;99.90;;;;;;4975465;28;19933;-72
2021/10/05 14:28:42;;;;;;;;;;;13.80;99.90;;;;;;4991601;28;19925;-72
2021/10/05 14:31:09;;;;;;;;;;;13.70;99.90;;;;;;4973221;28;19925;-72
2021/10/05 14:33:41;;;;;;;;;;;13.70;99.90;;;;;;4979228;28;19933;-72